Time;durP1;ratioP1;P1;durP2;ratioP2;P2;SDS_P1;SDS_P2;PMS_P1;PMS_P2;Temp;Humidity;BMP_temperature;BMP_pressure;BME280_temperature;BME280_humidity;BME280_pressure;Samples;Min_cycle;Max_cycle;Signal;HPM_P1;HPM_P2
2023/07/28 00:02:24;;;;;;;0.17;0.17;;;14.90;99.90;;;;;;5058846;28;20036;-76
2023/07/28 00:04:49;;;;;;;0.10;0.10;;;14.60;99.90;;;;;;5059841;28;20085;-80
2023/07/28 00:07:15;;;;;;;0.10;0.10;;;15.20;99.90;;;;;;5060016;28;20026;-75
2023/07/28 00:09:41;;;;;;;0.10;0.10;;;16.30;99.90;;;;;;5059482;28;20580;-77
2023/07/28 00:12:07;;;;;;;0.10;0.10;;;16.60;99.90;;;;;;5059044;28;20025;-81
2023/07/28 00:14:32;;;;;;;0.85;0.85;;;16.60;99.90;;;;;;5059223;28;20032;-80
2023/07/28 00:16:58;;;;;;;3.30;3.20;;;16.00;99.90;;;;;;5058698;28;20055;-77
2023/07/28 00:19:24;;;;;;;0.10;0.10;;;16.30;99.90;;;;;;5057086;28;20078;-77
2023/07/28 00:21:51;;;;;;;0.10;0.10;;;16.30;99.90;;;;;;5058582;28;20673;-77
2023/07/28 00:24:17;;;;;;;0.10;0.10;;;16.50;99.90;;;;;;5059050;28;20070;-83
2023/07/28 00:26:44;;;;;;;0.10;0.10;;;16.30;99.90;;;;;;5059249;28;20028;-79
2023/07/28 00:29:09;;;;;;;0.10;0.10;;;16.30;99.90;;;;;;5058730;28;20028;-76
2023/07/28 00:31:35;;;;;;;0.10;0.10;;;15.90;99.90;;;;;;5058658;28;20017;-76
2023/07/28 00:34:02;;;;;;;0.20;0.20;;;15.10;99.90;;;;;;5057804;28;20651;-76
2023/07/28 00:36:28;;;;;;;0.10;0.10;;;15.10;99.90;;;;;;5058922;28;20012;-79
2023/07/28 00:38:54;;;;;;;0.10;0.10;;;13.70;99.90;;;;;;5058913;28;20036;-77
2023/07/28 00:41:20;;;;;;;0.30;0.30;;;15.00;99.90;;;;;;5058968;28;20024;-82
2023/07/28 00:43:46;;;;;;;0.10;0.10;;;14.80;99.90;;;;;;5058705;28;20016;-76
2023/07/28 00:46:13;;;;;;;0.75;0.75;;;14.50;99.90;;;;;;5058477;28;20117;-83
2023/07/28 00:48:40;;;;;;;0.10;0.10;;;14.50;99.90;;;;;;5057755;28;20020;-86
2023/07/28 00:51:07;;;;;;;0.00;0.00;;;13.70;99.90;;;;;;5056060;28;20513;-81
2023/07/28 00:53:33;;;;;;;0.52;0.52;;;13.90;99.90;;;;;;5058262;28;20108;-79
2023/07/28 00:55:59;;;;;;;0.10;0.10;;;13.60;99.90;;;;;;5057729;28;20651;-80
2023/07/28 00:58:25;;;;;;;0.10;0.10;;;13.60;99.90;;;;;;5059087;28;20099;-81
2023/07/28 01:00:51;;;;;;;0.10;0.10;;;13.40;99.90;;;;;;5059994;28;20052;-80
2023/07/28 01:03:19;;;;;;;0.20;0.20;;;13.30;99.90;;;;;;5058026;28;20048;-81
2023/07/28 01:06:09;;;;;;;0.10;0.10;;;13.20;99.90;;;;;;5058475;28;20021;-79
2023/07/28 01:09:03;;;;;;;0.10;0.10;;;13.20;99.90;;;;;;5060400;28;20672;-80
2023/07/28 01:11:29;;;;;;;0.00;0.00;;;13.20;99.90;;;;;;5062341;28;20027;-80
2023/07/28 01:13:55;;;;;;;0.10;0.10;;;13.20;99.90;;;;;;5061677;28;20335;-80
2023/07/28 01:16:21;;;;;;;0.68;0.68;;;13.10;99.90;;;;;;5062142;28;20088;-83
2023/07/28 01:18:47;;;;;;;0.08;0.08;;;13.00;99.90;;;;;;5062529;28;20024;-78
2023/07/28 01:21:31;;;;;;;0.10;0.10;;;13.00;99.90;;;;;;5062051;28;20068;-78
2023/07/28 01:24:00;;;;;;;0.10;0.10;;;13.10;99.90;;;;;;5043199;28;20620;-77
2023/07/28 01:26:36;;;;;;;0.00;0.00;;;13.20;99.90;;;;;;5061447;28;20716;-77
2023/07/28 01:29:03;;;;;;;0.10;0.10;;;13.20;99.90;;;;;;5062317;28;20009;-78
2023/07/28 01:31:29;;;;;;;0.10;0.10;;;13.00;99.90;;;;;;5061976;28;20090;-82
2023/07/28 01:33:55;;;;;;;0.10;0.10;;;13.00;99.90;;;;;;5060469;28;20017;-81
2023/07/28 01:36:21;;;;;;;0.10;0.10;;;12.90;99.90;;;;;;5061153;28;20106;-81
2023/07/28 01:38:46;;;;;;;0.10;0.10;;;12.80;99.90;;;;;;5060171;28;20048;-82
2023/07/28 01:41:12;;;;;;;0.10;0.10;;;12.90;99.90;;;;;;5060978;28;20032;-81
2023/07/28 01:43:38;;;;;;;0.10;0.10;;;12.90;99.90;;;;;;5061277;28;20118;-85
2023/07/28 01:46:04;;;;;;;0.10;0.10;;;12.90;99.90;;;;;;5061124;28;20013;-83
2023/07/28 01:48:29;;;;;;;0.10;0.10;;;12.80;99.90;;;;;;5061088;28;20016;-81
2023/07/28 01:50:55;;;;;;;0.10;0.10;;;12.80;99.90;;;;;;5061450;28;20232;-77
2023/07/28 01:53:22;;;;;;;0.10;0.10;;;12.80;99.90;;;;;;5067962;28;20012;-87
2023/07/28 01:58:32;;;;;;;0.10;0.10;;;12.60;99.90;;;;;;5145405;22;20606;-78
2023/07/28 02:01:13;;;;;;;0.15;0.15;;;12.60;99.90;;;;;;5056517;28;20024;-87
2023/07/28 02:03:39;;;;;;;0.00;0.00;;;12.60;99.90;;;;;;5045970;28;20124;-81
2023/07/28 02:06:04;;;;;;;0.10;0.10;;;12.50;99.90;;;;;;5063444;28;20175;-78
2023/07/28 02:08:30;;;;;;;0.10;0.10;;;12.50;99.90;;;;;;5044547;28;20025;-83
2023/07/28 02:10:56;;;;;;;0.10;0.10;;;12.50;99.90;;;;;;5043450;28;20017;-83
2023/07/28 02:13:21;;;;;;;0.10;0.10;;;12.60;99.90;;;;;;5060493;28;20613;-77
2023/07/28 02:15:47;;;;;;;0.03;0.03;;;12.60;99.90;;;;;;5060401;28;20074;-78
2023/07/28 02:18:13;;;;;;;0.10;0.10;;;12.60;99.90;;;;;;5042335;28;20052;-82
2023/07/28 02:20:39;;;;;;;0.05;0.05;;;12.60;99.90;;;;;;5059403;28;20266;-78
2023/07/28 02:23:05;;;;;;;0.10;0.10;;;12.70;99.90;;;;;;5042409;28;20514;-82
2023/07/28 02:25:30;;;;;;;0.10;0.10;;;12.70;99.90;;;;;;5060330;28;20024;-78
2023/07/28 02:27:57;;;;;;;0.10;0.10;;;12.70;99.90;;;;;;5060072;28;20685;-78
2023/07/28 02:30:23;;;;;;;0.10;0.10;;;12.70;99.90;;;;;;5042384;28;20021;-83
2023/07/28 02:32:48;;;;;;;0.10;0.10;;;13.00;99.90;;;;;;5042073;28;20162;-84
2023/07/28 02:35:14;;;;;;;0.10;0.10;;;13.20;99.90;;;;;;5059855;28;20024;-83
2023/07/28 02:37:40;;;;;;;0.10;0.10;;;13.20;99.90;;;;;;5059943;28;20016;-79
2023/07/28 02:40:07;;;;;;;0.10;0.10;;;13.20;99.90;;;;;;5059509;28;20275;-79
2023/07/28 02:42:35;;;;;;;0.10;0.10;;;13.30;99.90;;;;;;5059666;28;20218;-78
2023/07/28 02:45:01;;;;;;;0.10;0.10;;;13.50;99.90;;;;;;5059381;28;20035;-80
2023/07/28 02:47:26;;;;;;;0.10;0.10;;;13.10;99.90;;;;;;5059563;28;20303;-78
2023/07/28 02:49:52;;;;;;;0.10;0.10;;;13.20;99.90;;;;;;5059456;28;20031;-79
2023/07/28 02:52:18;;;;;;;0.10;0.10;;;13.00;99.90;;;;;;5059261;28;20017;-78
2023/07/28 02:54:44;;;;;;;0.10;0.10;;;13.00;99.90;;;;;;5059400;28;20028;-83
2023/07/28 02:57:09;;;;;;;0.10;0.10;;;13.00;99.90;;;;;;5059090;28;20036;-78
2023/07/28 02:59:35;;;;;;;0.25;0.25;;;12.90;99.90;;;;;;5059127;28;20698;-78
2023/07/28 03:02:01;;;;;;;0.20;0.20;;;12.80;99.90;;;;;;5041586;28;20678;-82
2023/07/28 03:04:27;;;;;;;0.10;0.10;;;9.90;99.90;;;;;;5041372;28;20020;-81
2023/07/28 03:06:53;;;;;;;0.10;0.10;;;12.70;99.90;;;;;;5059265;28;20042;-78
2023/07/28 03:09:18;;;;;;;0.32;0.32;;;14.50;99.90;;;;;;5059354;28;20713;-79
2023/07/28 03:11:44;;;;;;;0.10;0.10;;;12.50;99.90;;;;;;5059561;28;20024;-80
2023/07/28 03:14:12;;;;;;;0.10;0.10;;;12.50;99.90;;;;;;5059436;28;20023;-79
2023/07/28 03:16:39;;;;;;;0.10;0.10;;;12.40;99.90;;;;;;5041503;28;20028;-81
2023/07/28 03:19:05;;;;;;;0.10;0.10;;;12.30;99.90;;;;;;5059247;28;20047;-79
2023/07/28 03:21:31;;;;;;;0.20;0.20;;;12.40;99.90;;;;;;5059070;28;20021;-78
2023/07/28 03:23:57;;;;;;;0.10;0.10;;;12.40;99.90;;;;;;5059278;28;20048;-78
2023/07/28 03:26:22;;;;;;;0.10;0.10;;;12.70;99.90;;;;;;5058746;28;20064;-83
2023/07/28 03:28:48;;;;;;;0.35;0.35;;;12.70;99.90;;;;;;5059076;28;20024;-80
2023/07/28 03:31:14;;;;;;;0.10;0.10;;;12.60;99.90;;;;;;5061466;28;20044;-79
2023/07/28 03:33:40;;;;;;;0.10;0.10;;;12.50;99.90;;;;;;5059688;28;20095;-78
2023/07/28 03:36:06;;;;;;;0.10;0.10;;;12.60;99.90;;;;;;5058556;28;20614;-83
2023/07/28 03:38:32;;;;;;;0.10;0.10;;;12.70;99.90;;;;;;5059481;28;20009;-79
2023/07/28 03:40:57;;;;;;;0.10;0.10;;;12.60;99.90;;;;;;5058824;28;20020;-82
2023/07/28 03:43:23;;;;;;;0.10;0.10;;;12.80;99.90;;;;;;5058609;28;20046;-79
2023/07/28 03:45:49;;;;;;;26.30;3.20;;;12.70;99.90;;;;;;5058145;28;20085;-81
2023/07/28 03:48:14;;;;;;;0.20;0.20;;;12.70;99.90;;;;;;5058620;28;20024;-83
2023/07/28 03:50:40;;;;;;;0.10;0.10;;;12.80;99.90;;;;;;5058294;28;20020;-78
2023/07/28 03:53:06;;;;;;;2.70;2.60;;;13.00;99.90;;;;;;5058293;28;20040;-81
2023/07/28 03:55:32;;;;;;;0.10;0.10;;;13.10;99.90;;;;;;5058177;28;20021;-79
2023/07/28 03:57:57;;;;;;;0.10;0.10;;;13.30;99.90;;;;;;5057859;28;20246;-82
2023/07/28 04:00:23;;;;;;;0.10;0.10;;;13.30;99.90;;;;;;5058083;28;20055;-80
2023/07/28 04:02:49;;;;;;;0.10;0.10;;;13.20;99.90;;;;;;5040274;28;20700;-79
2023/07/28 04:05:15;;;;;;;0.10;0.10;;;13.20;99.90;;;;;;5040128;28;20127;-80
2023/07/28 04:07:40;;;;;;;0.10;0.10;;;13.50;99.90;;;;;;5059641;28;20021;-78
2023/07/28 04:10:07;;;;;;;0.10;0.10;;;13.70;99.90;;;;;;5061421;28;20023;-78
2023/07/28 04:12:32;;;;;;;0.52;0.52;;;13.80;99.90;;;;;;5061504;28;20028;-79
2023/07/28 04:14:58;;;;;;;0.43;0.43;;;14.00;99.90;;;;;;5061398;28;20020;-83
2023/07/28 04:17:24;;;;;;;0.10;0.10;;;14.10;99.90;;;;;;5060357;28;20013;-80
2023/07/28 04:19:50;;;;;;;0.10;0.10;;;14.30;99.90;;;;;;5040966;28;20025;-81
2023/07/28 04:22:21;;;;;;;0.10;0.10;;;14.20;99.90;;;;;;5059233;28;20027;-80
2023/07/28 04:24:47;;;;;;;0.10;0.10;;;14.10;99.90;;;;;;5058399;28;20020;-80
2023/07/28 04:27:14;;;;;;;0.10;0.10;;;14.30;99.90;;;;;;5057531;28;20021;-79
2023/07/28 04:29:40;;;;;;;0.30;0.30;;;14.20;99.90;;;;;;5057857;28;20017;-80
2023/07/28 04:32:06;;;;;;;0.10;0.10;;;14.20;99.90;;;;;;5058162;28;20028;-79
2023/07/28 04:34:35;;;;;;;0.75;0.75;;;14.30;99.90;;;;;;5057574;28;20736;-82
2023/07/28 04:37:01;;;;;;;0.20;0.20;;;14.30;99.90;;;;;;5058823;28;20629;-78
2023/07/28 04:39:27;;;;;;;0.10;0.10;;;14.00;99.90;;;;;;5040417;28;20629;-79
2023/07/28 04:41:53;;;;;;;0.13;0.13;;;13.80;99.90;;;;;;5058820;28;20020;-77
2023/07/28 04:44:20;;;;;;;0.10;0.10;;;13.80;99.90;;;;;;5058213;28;20225;-78
2023/07/28 04:46:47;;;;;;;0.10;0.10;;;13.80;99.90;;;;;;5039814;28;20037;-80
2023/07/28 04:49:13;;;;;;;0.20;0.20;;;13.90;99.90;;;;;;5039791;28;20105;-80
2023/07/28 04:51:39;;;;;;;0.30;0.30;;;14.00;99.90;;;;;;5057908;28;20024;-83
2023/07/28 04:54:05;;;;;;;0.10;0.10;;;14.00;99.90;;;;;;5057607;28;20019;-78
2023/07/28 04:56:30;;;;;;;0.10;0.10;;;13.80;99.90;;;;;;5057372;28;20028;-81
2023/07/28 04:58:58;;;;;;;0.50;0.50;;;13.80;99.90;;;;;;5057517;28;20797;-83
2023/07/28 05:01:24;;;;;;;0.10;0.10;;;13.60;99.90;;;;;;5057386;28;20012;-82
2023/07/28 05:03:50;;;;;;;0.10;0.10;;;13.60;99.90;;;;;;5057553;28;20025;-82
2023/07/28 05:06:16;;;;;;;0.10;0.10;;;13.60;99.90;;;;;;5057574;28;20640;-82
2023/07/28 05:08:41;;;;;;;0.10;0.10;;;13.60;99.90;;;;;;5057097;28;20055;-81
2023/07/28 05:11:07;;;;;;;0.10;0.10;;;13.70;99.90;;;;;;5057261;28;20070;-81
2023/07/28 05:13:33;;;;;;;0.10;0.10;;;13.70;99.90;;;;;;5057202;28;20024;-78
2023/07/28 05:15:59;;;;;;;0.10;0.10;;;13.80;99.90;;;;;;5057647;28;20048;-75
2023/07/28 05:18:25;;;;;;;0.10;0.10;;;14.30;99.90;;;;;;5039576;28;20040;-73
2023/07/28 05:20:51;;;;;;;0.13;0.13;;;14.30;99.90;;;;;;5057332;28;20021;-82
2023/07/28 05:23:17;;;;;;;0.20;0.20;;;14.30;99.90;;;;;;5057317;28;20024;-80
2023/07/28 05:25:42;;;;;;;0.20;0.20;;;14.40;99.90;;;;;;5057033;28;20789;-81
2023/07/28 05:28:08;;;;;;;0.10;0.10;;;14.60;99.90;;;;;;5056967;28;20039;-83
2023/07/28 05:30:34;;;;;;;0.10;0.10;;;14.80;99.90;;;;;;5057521;28;20027;-82
2023/07/28 05:33:00;;;;;;;0.10;0.10;;;15.10;99.90;;;;;;5057262;28;20021;-82
2023/07/28 05:35:25;;;;;;;0.10;0.10;;;15.20;99.90;;;;;;5057153;28;20802;-80
2023/07/28 05:37:51;;;;;;;1.05;1.05;;;15.40;99.90;;;;;;5056992;28;20021;-80
2023/07/28 05:40:17;;;;;;;0.10;0.10;;;15.50;99.90;;;;;;5057025;28;20021;-77
2023/07/28 05:42:42;;;;;;;0.10;0.10;;;15.60;99.90;;;;;;5056783;28;20511;-81
2023/07/28 05:45:09;;;;;;;0.10;0.10;;;15.50;99.90;;;;;;5056996;28;20102;-78
2023/07/28 05:47:35;;;;;;;0.10;0.10;;;15.80;99.90;;;;;;5056907;28;20070;-78
2023/07/28 05:50:01;;;;;;;0.20;0.20;;;15.80;99.90;;;;;;5056833;28;20052;-76
2023/07/28 05:52:26;;;;;;;0.20;0.20;;;15.80;99.90;;;;;;5056979;28;20653;-77
2023/07/28 05:54:52;;;;;;;0.10;0.10;;;15.90;99.90;;;;;;5057110;28;20092;-80
2023/07/28 05:57:18;;;;;;;0.10;0.10;;;16.00;99.90;;;;;;5042252;28;20090;-79
2023/07/28 05:59:43;;;;;;;0.10;0.10;;;16.20;99.90;;;;;;5042311;28;20514;-80
2023/07/28 06:02:09;;;;;;;0.10;0.10;;;16.40;99.90;;;;;;5060741;28;20028;-83
2023/07/28 06:04:35;;;;;;;0.40;0.40;;;16.30;99.90;;;;;;5060384;28;20636;-80
2023/07/28 06:07:01;;;;;;;0.10;0.10;;;16.40;99.90;;;;;;5060650;28;20024;-77
2023/07/28 06:09:28;;;;;;;1.38;1.27;;;16.60;99.90;;;;;;5060262;28;20016;-77
2023/07/28 06:11:53;;;;;;;0.10;0.10;;;16.80;99.90;;;;;;5061938;28;20058;-81
2023/07/28 06:14:19;;;;;;;0.13;0.13;;;16.90;99.90;;;;;;5067757;28;20756;-78
2023/07/28 06:16:45;;;;;;;0.10;0.10;;;16.90;99.90;;;;;;5069308;28;20043;-80
2023/07/28 06:19:11;;;;;;;0.10;0.10;;;17.00;99.90;;;;;;5068564;28;20113;-78
2023/07/28 06:21:37;;;;;;;0.40;0.40;;;17.20;99.90;;;;;;5062520;28;20012;-77
2023/07/28 06:24:03;;;;;;;0.10;0.10;;;17.40;99.90;;;;;;5044385;28;20505;-84
2023/07/28 06:26:28;;;;;;;0.65;0.65;;;17.40;99.90;;;;;;5067728;28;20175;-77
2023/07/28 06:28:54;;;;;;;0.10;0.10;;;17.50;99.90;;;;;;5063646;28;20066;-79
2023/07/28 06:31:20;;;;;;;0.10;0.10;;;17.50;99.90;;;;;;5066082;28;20017;-80
2023/07/28 06:33:47;;;;;;;0.10;0.10;;;17.60;99.90;;;;;;5062949;28;20017;-77
2023/07/28 06:36:13;;;;;;;0.10;0.10;;;17.70;99.90;;;;;;5062100;28;20064;-84
2023/07/28 06:38:39;;;;;;;0.10;0.10;;;17.90;99.90;;;;;;5062691;28;20098;-79
2023/07/28 06:41:05;;;;;;;1.88;1.75;;;18.00;99.90;;;;;;5059197;28;20574;-78
2023/07/28 06:43:30;;;;;;;3.92;3.22;;;18.10;99.90;;;;;;5060272;28;20020;-75
2023/07/28 06:45:56;;;;;;;0.10;0.10;;;18.80;99.90;;;;;;5043716;28;20045;-86
2023/07/28 06:48:22;;;;;;;0.10;0.10;;;19.50;99.90;;;;;;5063177;28;20667;-79
2023/07/28 06:50:48;;;;;;;0.17;0.17;;;20.10;99.90;;;;;;5061205;28;20021;-78
2023/07/28 06:53:13;;;;;;;0.10;0.10;;;20.50;99.90;;;;;;5043761;28;20655;-85
2023/07/28 06:55:39;;;;;;;0.63;0.63;;;20.50;99.90;;;;;;5062087;28;20291;-79
2023/07/28 06:58:06;;;;;;;0.10;0.10;;;20.40;99.90;;;;;;5045859;28;20064;-75
2023/07/28 07:00:33;;;;;;;0.10;0.10;;;20.40;99.90;;;;;;5042721;28;20082;-77
2023/07/28 07:02:59;;;;;;;0.32;0.25;;;20.80;99.90;;;;;;5042040;28;20590;-78
2023/07/28 07:05:25;;;;;;;0.20;0.20;;;20.80;99.90;;;;;;5041275;28;20040;-79
2023/07/28 07:07:50;;;;;;;0.10;0.10;;;20.90;99.90;;;;;;5058950;28;20036;-78
2023/07/28 07:10:16;;;;;;;0.10;0.10;;;21.00;99.90;;;;;;5060144;28;20099;-83
2023/07/28 07:12:42;;;;;;;0.10;0.10;;;21.10;99.90;;;;;;5059781;28;20663;-84
2023/07/28 07:15:08;;;;;;;0.10;0.10;;;21.10;99.90;;;;;;5060039;28;20478;-82
2023/07/28 07:17:34;;;;;;;0.10;0.10;;;21.20;99.90;;;;;;5061017;28;20497;-83
2023/07/28 07:19:59;;;;;;;0.10;0.10;;;21.20;99.90;;;;;;5061723;28;20048;-78
2023/07/28 07:22:25;;;;;;;0.10;0.10;;;21.30;99.90;;;;;;5064418;28;20067;-82
2023/07/28 07:24:51;;;;;;;0.20;0.20;;;21.30;99.90;;;;;;5061664;28;20025;-79
2023/07/28 07:27:20;;;;;;;0.10;0.10;;;21.40;99.90;;;;;;5061378;28;20028;-75
2023/07/28 07:29:46;;;;;;;0.10;0.10;;;21.30;99.90;;;;;;5060911;28;20662;-76
2023/07/28 07:32:12;;;;;;;0.10;0.10;;;21.70;99.90;;;;;;5059555;28;20051;-82
2023/07/28 07:34:38;;;;;;;0.10;0.10;;;22.30;99.90;;;;;;5059774;28;20087;-84
2023/07/28 07:37:04;;;;;;;1.40;1.30;;;21.80;99.90;;;;;;5059578;28;20020;-78
2023/07/28 07:39:30;;;;;;;0.43;0.43;;;22.00;99.90;;;;;;5061154;28;20611;-82
2023/07/28 07:41:57;;;;;;;0.10;0.10;;;21.90;99.90;;;;;;5060358;28;20047;-81
2023/07/28 07:44:23;;;;;;;0.10;0.10;;;22.10;99.90;;;;;;5059369;28;20052;-75
2023/07/28 07:46:49;;;;;;;1.67;1.30;;;22.30;99.90;;;;;;5059041;28;20055;-83
2023/07/28 07:49:15;;;;;;;7.68;3.60;;;23.20;99.90;;;;;;5059268;28;20025;-83
2023/07/28 07:51:43;;;;;;;0.20;0.20;;;22.30;99.90;;;;;;5059100;28;20225;-78
2023/07/28 07:54:09;;;;;;;0.10;0.10;;;22.40;99.90;;;;;;5059116;28;20028;-81
2023/07/28 07:56:35;;;;;;;0.38;0.38;;;22.40;99.60;;;;;;5058879;28;20085;-80
2023/07/28 07:59:01;;;;;;;0.10;0.10;;;22.50;99.30;;;;;;5059021;28;20651;-76
2023/07/28 08:01:27;;;;;;;0.10;0.10;;;22.50;98.80;;;;;;5058316;28;20484;-80
2023/07/28 08:03:53;;;;;;;0.68;0.68;;;19.90;98.60;;;;;;5059127;28;20314;-77
2023/07/28 08:06:18;;;;;;;0.32;0.32;;;22.80;98.70;;;;;;5041397;28;20036;-78
2023/07/28 08:08:45;;;;;;;0.10;0.10;;;22.90;99.00;;;;;;5059474;28;20575;-81
2023/07/28 08:11:12;;;;;;;0.10;0.10;;;23.10;98.40;;;;;;5059295;28;20051;-83
2023/07/28 08:13:37;;;;;;;0.10;0.10;;;20.60;97.30;;;;;;5058514;28;20662;-81
2023/07/28 08:16:03;;;;;;;0.43;0.43;;;23.80;97.90;;;;;;5059509;28;20016;-84
2023/07/28 08:18:29;;;;;;;0.10;0.10;;;22.30;96.70;;;;;;5065274;28;20021;-83
2023/07/28 08:20:55;;;;;;;0.10;0.10;;;23.50;97.10;;;;;;5067239;28;20025;-81
2023/07/28 08:23:21;;;;;;;0.10;0.10;;;23.50;97.10;;;;;;5042847;28;20024;-76
2023/07/28 08:25:46;;;;;;;1.65;1.55;;;23.70;96.70;;;;;;5042462;28;20025;-81
2023/07/28 08:28:12;;;;;;;0.10;0.10;;;23.80;96.00;;;;;;5061480;28;20433;-84
2023/07/28 08:30:38;;;;;;;0.30;0.30;;;23.90;95.60;;;;;;5058992;28;20744;-77
2023/07/28 08:33:04;;;;;;;0.10;0.10;;;24.10;95.30;;;;;;5058033;28;20142;-74
2023/07/28 08:35:29;;;;;;;0.45;0.38;;;23.80;94.90;;;;;;5057942;28;20012;-79
2023/07/28 08:37:55;;;;;;;0.10;0.10;;;23.80;95.40;;;;;;5058408;28;20409;-77
2023/07/28 08:40:29;;;;;;;0.10;0.10;;;24.00;95.40;;;;;;5058236;28;20021;-82
2023/07/28 08:42:55;;;;;;;0.30;0.30;;;24.20;95.00;;;;;;5058662;28;20012;-81
2023/07/28 08:45:23;;;;;;;1.67;1.58;;;24.20;94.10;;;;;;5058756;28;20310;-86
2023/07/28 08:47:49;;;;;;;0.05;0.05;;;24.20;94.40;;;;;;5057783;28;20024;-76
2023/07/28 08:50:15;;;;;;;0.35;0.35;;;24.50;94.60;;;;;;5040888;28;20033;-82
2023/07/28 08:52:40;;;;;;;0.10;0.10;;;24.50;95.10;;;;;;5058137;28;20028;-81
2023/07/28 08:55:07;;;;;;;0.10;0.10;;;25.00;93.90;;;;;;5058257;28;20025;-81
2023/07/28 08:57:32;;;;;;;0.10;0.10;;;24.70;92.90;;;;;;5059032;28;20052;-83
2023/07/28 08:59:58;;;;;;;0.10;0.10;;;25.40;92.30;;;;;;5058957;28;20017;-87
2023/07/28 09:02:24;;;;;;;0.03;0.03;;;25.50;92.10;;;;;;5057782;28;20432;-77
2023/07/28 09:04:50;;;;;;;0.10;0.10;;;25.40;92.20;;;;;;5058683;28;20032;-82
2023/07/28 09:07:16;;;;;;;0.47;0.47;;;25.60;91.80;;;;;;5040419;28;20012;-87
2023/07/28 09:09:42;;;;;;;0.10;0.10;;;25.50;91.50;;;;;;5040437;28;20017;-78
2023/07/28 09:12:10;;;;;;;0.10;0.10;;;25.70;91.30;;;;;;5040058;28;20031;-83
2023/07/28 09:14:37;;;;;;;0.10;0.10;;;25.80;90.20;;;;;;5057887;28;20050;-83
2023/07/28 09:17:09;;;;;;;0.10;0.10;;;25.80;90.80;;;;;;5040191;28;20028;-76
2023/07/28 09:19:48;;;;;;;3.70;1.05;;;23.30;89.60;;;;;;5039971;28;20021;-86
2023/07/28 09:22:17;;;;;;;0.00;0.00;;;26.00;90.10;;;;;;5057769;28;20017;-81
2023/07/28 09:24:43;;;;;;;0.22;0.22;;;23.50;88.00;;;;;;5023667;28;20024;-81
2023/07/28 09:27:21;;;;;;;1.85;1.02;;;26.30;89.90;;;;;;5040063;28;20094;-83
2023/07/28 09:29:51;;;;;;;0.10;0.10;;;26.10;88.60;;;;;;5058426;28;20711;-83
2023/07/28 09:32:28;;;;;;;0.10;0.10;;;26.40;88.20;;;;;;5042239;28;20024;-83
2023/07/28 09:35:09;;;;;;;2.95;0.63;;;26.30;88.50;;;;;;5061402;28;20012;-77
2023/07/28 09:37:38;;;;;;;0.00;0.00;;;26.40;89.50;;;;;;5061491;28;20049;-80
2023/07/28 09:40:06;;;;;;;0.10;0.10;;;26.50;88.20;;;;;;5061775;28;20056;-83
2023/07/28 09:42:33;;;;;;;0.10;0.10;;;26.60;88.00;;;;;;5061752;28;20036;-76
2023/07/28 09:44:59;;;;;;;0.13;0.13;;;26.50;87.00;;;;;;5043238;28;20028;-81
2023/07/28 09:47:26;;;;;;;10.52;0.75;;;26.70;88.00;;;;;;5061510;28;20082;-82
2023/07/28 09:49:58;;;;;;;0.20;0.20;;;27.00;86.80;;;;;;5061085;28;20090;-77
2023/07/28 09:52:28;;;;;;;0.10;0.10;;;27.10;85.40;;;;;;5043242;28;20063;-82
2023/07/28 09:54:57;;;;;;;0.10;0.10;;;27.20;83.10;;;;;;5043756;28;20070;-82
2023/07/28 09:57:24;;;;;;;0.10;0.10;;;27.20;82.20;;;;;;5060907;28;20041;-79
2023/07/28 09:59:54;;;;;;;0.10;0.10;;;27.60;85.00;;;;;;5060730;28;20106;-78
2023/07/28 10:02:20;;;;;;;0.20;0.20;;;27.90;86.30;;;;;;5043104;28;20021;-85
2023/07/28 10:04:46;;;;;;;0.10;0.10;;;28.00;82.00;;;;;;5060958;28;20521;-85
2023/07/28 10:07:16;;;;;;;0.10;0.10;;;28.20;81.40;;;;;;5061845;28;20135;-77
2023/07/28 10:09:42;;;;;;;2.55;1.45;;;28.40;80.80;;;;;;5061278;28;20077;-82
2023/07/28 10:12:18;;;;;;;0.00;0.00;;;28.50;80.80;;;;;;5060568;28;20045;-82
2023/07/28 10:14:44;;;;;;;0.00;0.00;;;28.20;80.70;;;;;;5060727;28;20250;-76
2023/07/28 10:17:16;;;;;;;0.00;0.00;;;28.40;81.40;;;;;;5060434;28;20040;-78
2023/07/28 10:19:43;;;;;;;0.00;0.00;;;28.70;81.10;;;;;;5043121;28;20024;-82
2023/07/28 10:22:10;;;;;;;0.20;0.20;;;29.50;79.80;;;;;;5060423;28;20017;-77
2023/07/28 10:24:56;;;;;;;0.00;0.00;;;29.00;79.10;;;;;;5060781;28;20221;-76
2023/07/28 10:27:29;;;;;;;0.00;0.00;;;28.50;79.30;;;;;;5063356;28;20024;-81
2023/07/28 10:29:59;;;;;;;0.10;0.10;;;28.40;79.10;;;;;;5064203;28;20025;-80
2023/07/28 10:32:29;;;;;;;0.10;0.10;;;28.50;79.20;;;;;;5062040;28;20032;-82
2023/07/28 10:35:05;;;;;;;0.17;0.17;;;28.60;78.60;;;;;;5061161;28;20017;-79
2023/07/28 10:37:31;;;;;;;0.10;0.10;;;28.80;78.60;;;;;;5043276;28;20017;-77
2023/07/28 10:40:22;;;;;;;3.40;3.20;;;29.00;80.00;;;;;;5060289;28;20047;-76
2023/07/28 10:42:48;;;;;;;0.00;0.00;;;29.20;76.70;;;;;;5042068;28;20077;-83
2023/07/28 10:45:15;;;;;;;0.00;0.00;;;29.30;75.30;;;;;;5061484;28;20559;-82
2023/07/28 10:47:41;;;;;;;0.00;0.00;;;29.10;75.50;;;;;;5060851;28;20013;-81
2023/07/28 10:50:11;;;;;;;0.40;0.32;;;29.00;75.80;;;;;;5060402;28;20016;-80
2023/07/28 10:52:43;;;;;;;0.30;0.30;;;28.90;76.30;;;;;;5041279;28;20035;-76
2023/07/28 10:55:16;;;;;;;0.10;0.10;;;28.90;75.50;;;;;;5060139;28;20088;-77
2023/07/28 10:57:46;;;;;;;0.73;0.52;;;28.90;75.50;;;;;;5059698;28;20043;-76
2023/07/28 11:00:14;;;;;;;0.00;0.00;;;29.10;75.90;;;;;;5060469;28;20097;-78
2023/07/28 11:02:44;;;;;;;0.30;0.30;;;29.30;76.30;;;;;;5059647;28;20020;-76
2023/07/28 11:05:14;;;;;;;0.08;0.08;;;29.50;74.80;;;;;;5059682;28;20044;-76
2023/07/28 11:07:43;;;;;;;0.10;0.10;;;29.80;76.00;;;;;;5066469;28;20019;-80
2023/07/28 11:10:17;;;;;;;0.00;0.00;;;30.20;77.70;;;;;;5063321;28;20040;-76
2023/07/28 11:12:44;;;;;;;0.10;0.10;;;30.50;77.00;;;;;;5065576;28;20020;-77
2023/07/28 11:15:11;;;;;;;0.10;0.10;;;31.00;77.00;;;;;;5064372;28;20040;-75
2023/07/28 11:17:48;;;;;;;1.83;1.73;;;31.00;72.50;;;;;;5060169;28;20117;-84
2023/07/28 11:20:30;;;;;;;0.10;0.10;;;30.90;72.90;;;;;;5063222;28;20657;-78
2023/07/28 11:23:03;;;;;;;0.03;0.03;;;30.70;72.40;;;;;;5062297;28;20513;-79
2023/07/28 11:25:29;;;;;;;;;;;30.90;72.60;;;;;;5062099;28;20037;-80
2023/07/28 11:27:56;;;;;;;0.10;0.10;;;30.90;72.10;;;;;;5041816;28;19996;-78
2023/07/28 11:30:23;;;;;;;0.10;0.10;;;30.80;71.60;;;;;;5059308;28;20048;-78
2023/07/28 11:32:50;;;;;;;0.47;0.47;;;31.00;71.50;;;;;;5059229;28;20025;-79
2023/07/28 11:35:18;;;;;;;0.10;0.10;;;31.00;71.20;;;;;;5058784;28;20025;-76
2023/07/28 11:37:48;;;;;;;0.00;0.00;;;31.20;70.90;;;;;;5040289;28;20050;-80
2023/07/28 11:40:16;;;;;;;0.20;0.20;;;31.50;71.50;;;;;;5058926;28;20013;-75
2023/07/28 11:42:45;;;;;;;0.20;0.20;;;31.70;70.60;;;;;;5058954;28;20059;-75
2023/07/28 11:45:13;;;;;;;0.10;0.10;;;31.60;69.40;;;;;;5058749;28;20693;-76
2023/07/28 11:47:39;;;;;;;0.55;0.20;;;31.60;69.10;;;;;;5058565;28;20016;-83
2023/07/28 11:50:05;;;;;;;0.73;0.73;;;31.80;71.20;;;;;;5058688;28;20548;-83
2023/07/28 11:52:32;;;;;;;0.57;0.45;;;32.10;69.90;;;;;;5058391;28;20028;-80
2023/07/28 11:55:02;;;;;;;1.08;0.52;;;32.50;70.20;;;;;;5058732;28;20028;-76
2023/07/28 11:57:32;;;;;;;0.20;0.20;;;32.80;69.30;;;;;;5041558;28;20096;-85
2023/07/28 12:00:04;;;;;;;0.10;0.10;;;33.40;70.70;;;;;;5059356;28;20028;-83
2023/07/28 12:02:33;;;;;;;0.20;0.20;;;33.90;67.90;;;;;;5058119;28;20017;-79
2023/07/28 12:04:59;;;;;;;0.05;0.05;;;34.10;66.60;;;;;;5040130;28;20108;-82
2023/07/28 12:07:32;;;;;;;0.10;0.10;;;34.20;66.30;;;;;;5057967;28;20107;-78
2023/07/28 12:10:12;;;;;;;0.25;0.20;;;33.80;65.90;;;;;;5058262;28;20009;-83
2023/07/28 12:12:44;;;;;;;0.03;0.03;;;33.60;66.10;;;;;;5058093;28;20040;-79
2023/07/28 12:15:31;;;;;;;0.10;0.10;;;34.00;66.80;;;;;;5058106;28;20016;-81
2023/07/28 12:18:13;;;;;;;0.20;0.20;;;34.20;65.20;;;;;;5057686;28;20035;-80
2023/07/28 12:20:38;;;;;;;0.47;0.38;;;33.80;65.30;;;;;;5057856;28;20016;-80
2023/07/28 12:23:05;;;;;;;0.10;0.10;;;33.80;66.20;;;;;;5057575;28;20032;-78
2023/07/28 12:25:31;;;;;;;1.20;0.63;;;34.30;64.30;;;;;;5059519;28;20240;-80
2023/07/28 12:27:57;;;;;;;0.38;0.30;;;34.20;64.60;;;;;;5057737;28;20015;-79
2023/07/28 12:30:23;;;;;;;0.10;0.10;;;34.60;63.90;;;;;;5057974;28;20063;-80
2023/07/28 12:32:49;;;;;;;0.10;0.10;;;34.70;63.60;;;;;;5057695;28;20040;-80
2023/07/28 12:35:15;;;;;;;0.20;0.20;;;35.00;63.70;;;;;;5057416;28;20013;-74
2023/07/28 12:37:41;;;;;;;4.50;0.52;;;35.30;63.00;;;;;;5059890;28;20025;-78
2023/07/28 12:40:10;;;;;;;0.52;0.20;;;35.50;62.80;;;;;;5060068;28;20021;-79
2023/07/28 12:42:36;;;;;;;0.10;0.10;;;35.60;62.60;;;;;;5058347;28;20078;-77
2023/07/28 12:45:02;;;;;;;0.63;0.63;;;35.70;62.30;;;;;;5058669;28;20024;-78
2023/07/28 12:47:28;;;;;;;0.32;0.30;;;36.00;62.40;;;;;;5059942;28;20031;-80
2023/07/28 12:49:55;;;;;;;0.40;0.40;;;36.30;60.50;;;;;;5059789;28;20019;-76
2023/07/28 12:52:21;;;;;;;0.30;0.20;;;36.00;60.30;;;;;;5040317;28;20089;-77